Time;durP1;ratioP1;P1;durP2;ratioP2;P2;SDS_P1;SDS_P2;PMS_P1;PMS_P2;Temp;Humidity;BMP_temperature;BMP_pressure;BME280_temperature;BME280_humidity;BME280_pressure;Samples;Min_cycle;Max_cycle;Signal;HPM_P1;HPM_P2
2021/03/21 00:02:23;;;;;;;72.32;39.67;;;3.80;91.10;;;;;;5032127;28;20079;-70
2021/03/21 00:04:49;;;;;;;74.00;40.63;;;3.70;90.60;;;;;;5033291;28;20107;-70
2021/03/21 00:07:14;;;;;;;88.20;47.45;;;3.70;90.20;;;;;;5033233;28;20382;-71
2021/03/21 00:09:40;;;;;;;96.57;48.70;;;3.70;91.20;;;;;;5032944;28;20029;-71
2021/03/21 00:12:07;;;;;;;101.22;54.60;;;3.60;90.70;;;;;;5033313;28;20477;-70
2021/03/21 00:14:32;;;;;;;104.22;50.88;;;3.60;91.70;;;;;;5032845;28;20045;-71
2021/03/21 00:16:59;;;;;;;69.90;39.72;;;3.50;92.00;;;;;;5031902;28;20481;-71
2021/03/21 00:19:25;;;;;;;83.45;42.70;;;3.50;90.80;;;;;;5033089;28;20036;-72
2021/03/21 00:21:52;;;;;;;86.93;42.75;;;3.40;90.40;;;;;;5033077;28;20022;-72
2021/03/21 00:24:18;;;;;;;90.53;46.00;;;3.30;90.50;;;;;;5031470;28;20033;-71
2021/03/21 00:26:44;;;;;;;76.78;43.30;;;3.30;91.30;;;;;;5027929;28;20058;-72
2021/03/21 00:29:10;;;;;;;91.68;47.30;;;3.20;91.10;;;;;;5013038;28;20029;-71
2021/03/21 00:31:36;;;;;;;88.10;47.35;;;3.20;91.10;;;;;;5012964;28;20026;-71
2021/03/21 00:34:03;;;;;;;91.43;46.97;;;3.20;91.60;;;;;;5013289;28;20049;-72
2021/03/21 00:36:29;;;;;;;62.42;36.95;;;3.00;91.40;;;;;;5013295;28;20180;-71
2021/03/21 00:38:56;;;;;;;57.90;33.88;;;3.00;91.70;;;;;;5037044;28;20030;-72
2021/03/21 00:41:24;;;;;;;61.33;34.15;;;2.90;91.60;;;;;;5031630;28;20022;-71
2021/03/21 00:43:54;;;;;;;56.40;33.25;;;3.00;92.20;;;;;;5032985;28;20104;-72
2021/03/21 00:46:20;;;;;;;59.92;31.60;;;3.00;92.50;;;;;;5032783;28;20116;-72
2021/03/21 00:48:47;;;;;;;59.78;34.13;;;3.00;92.00;;;;;;5048111;28;20572;-72
2021/03/21 00:51:15;;;;;;;50.42;28.73;;;2.90;92.40;;;;;;5032820;28;20017;-71
2021/03/21 00:53:41;;;;;;;71.03;35.42;;;2.80;92.30;;;;;;5048155;28;20061;-72
2021/03/21 00:56:09;;;;;;;75.88;39.35;;;2.80;92.70;;;;;;5048076;28;20037;-72
2021/03/21 00:58:36;;;;;;;59.28;33.97;;;2.80;93.20;;;;;;5048021;28;20476;-71
2021/03/21 01:01:04;;;;;;;53.88;32.00;;;2.80;94.30;;;;;;5047997;28;20068;-71
2021/03/21 01:03:29;;;;;;;52.38;32.17;;;2.80;94.20;;;;;;5048011;28;20029;-71
2021/03/21 01:06:00;;;;;;;51.67;30.30;;;2.70;94.40;;;;;;5032641;28;20041;-71
2021/03/21 01:08:31;;;;;;;55.67;31.00;;;2.60;94.40;;;;;;5047973;28;20060;-71
2021/03/21 01:11:00;;;;;;;61.22;34.83;;;2.60;94.70;;;;;;5024428;28;20294;-72
2021/03/21 01:13:27;;;;;;;75.83;40.37;;;2.50;95.00;;;;;;5032640;28;20037;-72
2021/03/21 01:15:54;;;;;;;78.63;40.83;;;2.40;95.20;;;;;;5047925;28;20493;-71
2021/03/21 01:18:27;;;;;;;74.30;40.22;;;2.40;95.30;;;;;;5032286;28;20466;-71
2021/03/21 01:20:53;;;;;;;85.07;43.25;;;2.40;95.60;;;;;;5047879;28;20056;-72
2021/03/21 01:23:20;;;;;;;80.67;42.73;;;2.30;95.60;;;;;;5032824;28;20034;-71
2021/03/21 01:25:46;;;;;;;83.57;43.87;;;2.30;95.90;;;;;;5035819;28;20053;-71
2021/03/21 01:28:24;;;;;;;74.63;38.93;;;2.30;95.90;;;;;;5052400;28;20086;-73
2021/03/21 01:30:53;;;;;;;70.87;39.37;;;2.30;95.90;;;;;;5052677;28;20029;-71
2021/03/21 01:33:20;;;;;;;63.43;36.67;;;2.30;95.80;;;;;;5052367;28;20021;-71
2021/03/21 01:35:48;;;;;;;62.70;34.33;;;2.30;95.80;;;;;;5052428;28;20075;-72
2021/03/21 01:38:14;;;;;;;61.77;34.00;;;2.20;96.00;;;;;;5055617;28;20422;-71
2021/03/21 01:40:41;;;;;;;58.20;33.13;;;2.20;96.10;;;;;;5054617;28;20036;-72
2021/03/21 01:43:13;;;;;;;55.83;32.30;;;2.20;96.00;;;;;;5054591;28;20380;-72
2021/03/21 01:45:49;;;;;;;52.70;31.73;;;2.20;96.10;;;;;;5054503;28;20033;-72
2021/03/21 01:48:17;;;;;;;58.33;32.58;;;2.10;96.30;;;;;;5055840;28;20040;-72
2021/03/21 01:50:48;;;;;;;57.53;31.87;;;2.10;96.50;;;;;;5055737;28;20025;-72
2021/03/21 01:53:18;;;;;;;61.75;32.90;;;2.10;96.30;;;;;;5055735;28;20100;-72
2021/03/21 01:55:45;;;;;;;59.70;34.17;;;2.10;96.30;;;;;;5055648;28;20060;-73
2021/03/21 01:58:10;;;;;;;59.77;33.27;;;2.00;96.50;;;;;;5054304;28;20032;-72
2021/03/21 02:00:39;;;;;;;60.45;32.47;;;2.00;96.10;;;;;;5055482;28;20025;-72
2021/03/21 02:03:06;;;;;;;64.63;33.77;;;2.00;96.30;;;;;;5055523;28;20031;-72
2021/03/21 02:05:33;;;;;;;58.80;32.73;;;2.00;95.90;;;;;;5055345;28;20083;-73
2021/03/21 02:08:23;;;;;;;57.53;32.03;;;2.00;95.90;;;;;;5054091;28;20380;-72
2021/03/21 02:11:08;;;;;;;54.85;32.08;;;1.90;96.20;;;;;;5055403;28;20033;-72
2021/03/21 02:13:49;;;;;;;62.50;34.30;;;1.90;96.50;;;;;;5055579;28;20058;-72
2021/03/21 02:16:41;;;;;;;58.50;33.37;;;1.90;96.80;;;;;;5037394;28;20036;-72
2021/03/21 02:19:15;;;;;;;55.38;32.78;;;1.90;96.50;;;;;;5041014;28;20530;-72
2021/03/21 02:21:55;;;;;;;63.27;32.80;;;2.00;96.40;;;;;;5053882;28;20068;-72
2021/03/21 02:24:42;;;;;;;62.23;33.93;;;2.00;96.20;;;;;;5055086;28;20070;-72
2021/03/21 02:27:25;;;;;;;54.00;30.17;;;2.00;96.40;;;;;;5033458;28;20099;-71
2021/03/21 02:30:09;;;;;;;55.73;32.13;;;1.90;96.00;;;;;;5035148;28;20036;-73
2021/03/21 02:32:59;;;;;;;61.23;32.87;;;1.90;96.00;;;;;;5050388;28;20025;-72
2021/03/21 02:35:45;;;;;;;51.77;31.80;;;1.90;96.00;;;;;;5013706;28;20068;-72
2021/03/21 02:38:28;;;;;;;61.50;32.53;;;1.90;95.90;;;;;;5050255;28;20026;-71
2021/03/21 02:41:00;;;;;;;60.30;33.70;;;1.90;95.90;;;;;;5050263;28;20457;-71
2021/03/21 02:43:40;;;;;;;54.97;31.77;;;1.90;95.90;;;;;;5049961;28;20040;-71
2021/03/21 02:46:20;;;;;;;65.30;35.40;;;1.90;95.60;;;;;;5034539;28;20033;-72
2021/03/21 02:48:59;;;;;;;62.70;35.53;;;1.90;95.70;;;;;;5034506;28;20045;-70
2021/03/21 02:51:35;;;;;;;72.77;39.10;;;1.80;95.70;;;;;;5050095;28;20091;-69
2021/03/21 02:54:16;;;;;;;67.37;39.73;;;1.70;96.00;;;;;;5049992;28;20079;-72
2021/03/21 02:56:45;;;;;;;71.65;38.13;;;1.60;96.30;;;;;;5034650;28;20037;-69
2021/03/21 02:59:18;;;;;;;62.23;33.60;;;1.60;96.60;;;;;;5034545;28;20068;-69
2021/03/21 03:01:50;;;;;;;55.37;31.13;;;1.60;96.40;;;;;;5034576;28;20029;-70
2021/03/21 03:04:22;;;;;;;60.73;33.33;;;1.70;96.40;;;;;;5034470;28;20485;-69
2021/03/21 03:07:03;;;;;;;;;;;1.70;96.20;;;;;;5034801;28;20120;-70
2021/03/21 03:09:41;;;;;;;56.63;31.10;;;1.70;96.40;;;;;;5034364;28;19920;-70
2021/03/21 03:12:28;;;;;;;62.60;32.80;;;1.70;95.90;;;;;;5034277;28;20104;-70
2021/03/21 03:14:54;;;;;;;60.73;34.03;;;1.70;97.00;;;;;;5049511;28;20045;-72
2021/03/21 03:17:26;;;;;;;61.00;32.77;;;1.60;96.40;;;;;;5034168;28;20457;-70
2021/03/21 03:20:18;;;;;;;57.73;32.70;;;1.50;96.50;;;;;;5032805;28;20033;-71
2021/03/21 03:23:22;;;;;;;56.40;32.40;;;1.50;96.70;;;;;;5030312;28;20044;-70
2021/03/21 03:25:51;;;;;;;54.80;31.13;;;1.60;96.80;;;;;;5022113;28;20057;-70
2021/03/21 03:28:16;;;;;;;59.17;34.77;;;1.70;96.50;;;;;;5036008;28;20029;-70
2021/03/21 03:30:56;;;;;;;55.50;32.23;;;1.70;96.70;;;;;;5053886;28;20535;-70
2021/03/21 03:33:23;;;;;;;58.67;31.27;;;1.70;96.30;;;;;;5043240;28;20026;-70
2021/03/21 03:35:49;;;;;;;56.10;31.27;;;1.70;96.40;;;;;;5033830;28;20033;-70
2021/03/21 03:38:15;;;;;;;54.53;29.90;;;1.60;96.20;;;;;;5032420;28;20029;-70
2021/03/21 03:40:44;;;;;;;54.60;30.57;;;1.60;96.60;;;;;;5032390;28;20095;-71
2021/03/21 03:43:30;;;;;;;56.53;30.53;;;1.60;96.00;;;;;;5015880;28;20142;-70
2021/03/21 03:46:47;;;;;;;53.43;30.70;;;1.60;95.90;;;;;;5033603;28;20473;-70
2021/03/21 03:49:49;;;;;;;53.93;29.43;;;1.50;95.90;;;;;;5011042;28;20132;-70
2021/03/21 03:52:20;;;;;;;;;;;1.50;96.00;;;;;;5034040;28;20030;-72
2021/03/21 03:55:18;;;;;;;46.22;26.40;;;1.50;96.00;;;;;;5033284;28;20312;-71
2021/03/21 03:58:05;;;;;;;46.53;26.70;;;1.40;96.00;;;;;;5033059;28;20034;-71
2021/03/21 04:00:46;;;;;;;45.13;26.17;;;1.40;95.90;;;;;;5015741;28;20466;-71
2021/03/21 04:03:43;;;;;;;48.25;27.88;;;1.40;96.10;;;;;;5033727;28;20043;-70
2021/03/21 04:06:15;;;;;;;47.30;27.10;;;1.40;96.20;;;;;;5033230;28;20029;-71
2021/03/21 04:09:09;;;;;;;45.33;26.07;;;1.40;95.60;;;;;;5032035;28;20065;-70
2021/03/21 04:11:45;;;;;;;45.27;25.93;;;1.40;95.20;;;;;;5033232;28;20032;-70
2021/03/21 04:14:22;;;;;;;50.73;26.47;;;1.50;95.00;;;;;;5031940;28;20385;-70
2021/03/21 04:17:09;;;;;;;51.13;26.67;;;1.50;95.00;;;;;;5031883;28;20037;-71
2021/03/21 04:19:40;;;;;;;47.47;27.17;;;1.40;95.60;;;;;;5033528;28;20037;-71
2021/03/21 04:22:14;;;;;;;50.67;27.30;;;1.40;94.90;;;;;;5033105;28;20421;-71
2021/03/21 04:24:49;;;;;;;48.93;26.13;;;1.50;95.20;;;;;;5033449;28;20033;-71
2021/03/21 04:27:28;;;;;;;43.07;25.17;;;1.50;95.00;;;;;;5032343;28;20057;-71
2021/03/21 04:29:59;;;;;;;44.97;24.30;;;1.50;95.10;;;;;;5033054;28;20041;-71
2021/03/21 04:32:49;;;;;;;48.10;24.02;;;1.40;95.10;;;;;;5033055;28;20028;-71
2021/03/21 04:35:24;;;;;;;40.23;23.43;;;1.50;95.20;;;;;;5033075;28;20112;-71
2021/03/21 04:37:58;;;;;;;41.00;23.73;;;1.50;94.90;;;;;;5031713;28;20406;-71
2021/03/21 04:40:26;;;;;;;46.73;25.27;;;1.60;95.10;;;;;;5031376;28;20032;-68
2021/03/21 04:42:54;;;;;;;49.20;26.57;;;1.50;94.50;;;;;;5033171;28;20029;-69
2021/03/21 04:45:27;;;;;;;44.70;25.90;;;1.50;95.40;;;;;;5015218;28;20382;-68
2021/03/21 04:48:09;;;;;;;45.20;25.63;;;1.50;95.00;;;;;;5032927;28;20056;-72
2021/03/21 04:50:35;;;;;;;44.93;25.47;;;1.50;95.70;;;;;;5032940;28;20057;-71
2021/03/21 04:53:12;;;;;;;42.10;24.90;;;1.50;95.40;;;;;;5032792;28;20131;-69
2021/03/21 04:55:41;;;;;;;40.27;24.43;;;1.50;95.60;;;;;;5032512;28;20497;-69
2021/03/21 04:58:17;;;;;;;37.63;23.30;;;1.50;94.80;;;;;;5031467;28;20383;-69
2021/03/21 05:00:46;;;;;;;36.20;21.60;;;1.50;95.40;;;;;;5032874;28;20026;-69
2021/03/21 05:03:35;;;;;;;47.47;24.10;;;1.50;95.40;;;;;;5035100;28;20351;-69
2021/03/21 05:06:18;;;;;;;42.37;23.53;;;1.40;96.00;;;;;;5032650;28;20037;-69
2021/03/21 05:09:01;;;;;;;37.93;21.77;;;1.40;95.70;;;;;;5051263;28;20029;-69
2021/03/21 05:11:37;;;;;;;42.47;24.03;;;1.50;95.70;;;;;;5055329;28;20086;-71
2021/03/21 05:14:09;;;;;;;43.50;23.53;;;1.50;94.80;;;;;;5056505;28;20492;-71
2021/03/21 05:16:54;;;;;;;40.47;23.47;;;1.50;94.50;;;;;;5056230;28;20028;-71
2021/03/21 05:19:34;;;;;;;39.37;22.80;;;1.50;95.00;;;;;;5056407;28;20029;-72
2021/03/21 05:22:14;;;;;;;43.47;23.70;;;1.50;94.30;;;;;;5056350;28;20036;-73
2021/03/21 05:24:45;;;;;;;43.27;23.27;;;1.50;94.60;;;;;;5056298;28;20462;-73
2021/03/21 05:27:24;;;;;;;44.58;25.77;;;1.60;94.50;;;;;;5034548;28;20060;-74
2021/03/21 05:30:02;;;;;;;39.20;22.53;;;1.60;94.00;;;;;;5036290;28;20030;-73
2021/03/21 05:32:29;;;;;;;44.13;23.10;;;1.80;93.60;;;;;;5034970;28;20030;-72
2021/03/21 05:34:57;;;;;;;40.83;23.23;;;1.80;93.60;;;;;;5051483;28;20025;-72
2021/03/21 05:37:31;;;;;;;37.87;22.67;;;1.90;92.50;;;;;;5036074;28;20041;-73
2021/03/21 05:40:01;;;;;;;38.40;23.60;;;2.00;93.20;;;;;;5030889;28;20037;-72
2021/03/21 05:42:45;;;;;;;48.03;26.37;;;1.80;93.00;;;;;;5016521;28;20481;-71
2021/03/21 05:45:32;;;;;;;37.30;22.40;;;1.80;94.40;;;;;;5014809;28;20028;-72
2021/03/21 05:48:16;;;;;;;37.07;23.73;;;1.80;93.10;;;;;;5016123;28;20026;-72
2021/03/21 05:51:12;;;;;;;40.77;24.53;;;1.80;93.70;;;;;;5031286;28;20463;-73
2021/03/21 05:54:01;;;;;;;42.93;22.27;;;1.80;92.20;;;;;;5016027;28;20022;-73
2021/03/21 05:56:52;;;;;;;43.00;23.13;;;1.80;91.90;;;;;;5029355;28;20037;-72
2021/03/21 05:59:48;;;;;;;41.40;23.83;;;1.80;92.20;;;;;;5014565;28;20061;-73
2021/03/21 06:02:54;;;;;;;43.33;25.30;;;1.80;92.80;;;;;;5015938;28;20026;-74
2021/03/21 06:05:51;;;;;;;47.50;25.17;;;1.90;92.70;;;;;;5014313;28;20122;-73
2021/03/21 06:08:26;;;;;;;42.47;24.40;;;1.90;92.50;;;;;;5004740;28;20375;-74
2021/03/21 06:11:04;;;;;;;42.97;23.47;;;1.90;92.10;;;;;;5015696;28;20026;-73
2021/03/21 06:14:06;;;;;;;43.00;24.97;;;1.90;91.70;;;;;;5015663;28;20476;-73
2021/03/21 06:16:57;;;;;;;39.47;22.80;;;2.00;92.00;;;;;;5014301;28;20386;-72
2021/03/21 06:20:00;;;;;;;39.80;23.20;;;2.00;92.00;;;;;;5015401;28;20025;-73
2021/03/21 06:22:43;;;;;;;41.43;23.33;;;2.10;93.20;;;;;;5013643;28;20022;-73
2021/03/21 06:25:09;;;;;;;41.07;23.90;;;2.10;92.70;;;;;;5015469;28;20450;-72
2021/03/21 06:28:09;;;;;;;42.13;24.23;;;2.10;91.40;;;;;;5013563;28;20077;-71
2021/03/21 06:30:58;;;;;;;44.20;25.63;;;2.00;92.60;;;;;;4991863;28;20048;-73
2021/03/21 06:34:12;;;;;;;50.43;27.00;;;2.00;93.00;;;;;;5014747;28;20026;-73
2021/03/21 06:36:56;;;;;;;40.73;23.97;;;2.00;93.30;;;;;;4991982;28;20029;-73
2021/03/21 06:39:39;;;;;;;47.13;25.60;;;2.00;92.20;;;;;;5015220;28;20485;-73
2021/03/21 06:42:31;;;;;;;49.47;29.00;;;2.00;92.40;;;;;;5015103;28;20109;-73
2021/03/21 06:45:06;;;;;;;45.65;25.52;;;2.00;93.90;;;;;;5014697;28;20424;-73
2021/03/21 06:47:50;;;;;;;49.73;26.23;;;1.90;92.30;;;;;;5014763;28;20478;-73
2021/03/21 06:50:44;;;;;;;51.43;26.20;;;1.90;92.40;;;;;;5015058;28;20088;-73
2021/03/21 06:53:52;;;;;;;46.57;26.77;;;1.90;93.80;;;;;;5030099;28;20489;-73
2021/03/21 06:56:39;;;;;;;50.30;26.93;;;1.90;93.50;;;;;;5014823;28;20034;-74
2021/03/21 07:02:49;;;;;;;42.27;25.17;;;1.90;93.50;;;;;;5022543;28;20457;-73
2021/03/21 07:05:33;;;;;;;50.20;26.77;;;1.90;93.30;;;;;;5027926;28;20035;-73
2021/03/21 07:08:20;;;;;;;44.77;26.70;;;1.90;94.30;;;;;;5014990;28;20058;-72
2021/03/21 07:11:17;;;;;;;49.73;28.07;;;1.70;96.40;;;;;;5014588;28;20030;-72
2021/03/21 07:14:11;;;;;;;41.43;25.13;;;1.70;96.30;;;;;;5014863;28;20375;-72
2021/03/21 07:16:37;;;;;;;43.67;26.10;;;1.70;97.30;;;;;;5014807;28;20054;-71
2021/03/21 07:19:08;;;;;;;43.73;26.93;;;1.70;96.50;;;;;;5014674;28;20513;-71
2021/03/21 07:22:39;;;;;;;44.20;26.15;;;1.70;97.00;;;;;;5014153;28;20383;-72
2021/03/21 07:25:39;;;;;;;46.40;25.23;;;1.90;97.90;;;;;;5014350;28;20026;-71
2021/03/21 07:28:33;;;;;;;46.53;27.10;;;1.90;96.40;;;;;;4994633;28;20042;-72
2021/03/21 07:31:31;;;;;;;43.60;25.00;;;1.80;95.40;;;;;;5004983;28;20125;-72
2021/03/21 07:34:33;;;;;;;48.43;28.03;;;1.80;95.00;;;;;;4936521;29;20507;-73
2021/03/21 07:37:25;;;;;;;54.55;30.30;;;1.70;96.70;;;;;;4953417;29;20074;-73
2021/03/21 07:40:06;;;;;;;49.25;29.27;;;1.80;97.70;;;;;;4915228;29;20039;-72
2021/03/21 07:42:42;;;;;;;40.72;25.02;;;1.90;96.50;;;;;;4937323;29;20377;-72
2021/03/21 07:45:18;;;;;;;44.27;25.47;;;1.90;94.50;;;;;;4937381;29;20466;-72
2021/03/21 07:47:57;;;;;;;48.93;28.80;;;1.90;95.30;;;;;;4953134;29;20039;-71
2021/03/21 07:50:41;;;;;;;53.07;30.47;;;2.00;95.80;;;;;;4953068;29;20039;-73
2021/03/21 07:53:54;;;;;;;45.80;27.57;;;2.10;96.10;;;;;;4936986;29;20126;-72
2021/03/21 07:56:35;;;;;;;51.20;28.93;;;2.00;95.90;;;;;;4895967;29;20083;-72
2021/03/21 07:59:07;;;;;;;52.20;30.20;;;2.00;96.50;;;;;;4951867;29;20039;-70
2021/03/21 08:01:33;;;;;;;44.93;26.93;;;2.10;96.70;;;;;;4953088;29;20045;-72
2021/03/21 08:04:12;;;;;;;43.47;25.90;;;2.00;95.90;;;;;;4952920;29;20042;-73
2021/03/21 08:06:56;;;;;;;48.23;28.13;;;2.00;95.50;;;;;;4951695;29;20039;-72
2021/03/21 08:09:33;;;;;;;46.93;27.63;;;2.00;96.20;;;;;;4974857;28;20125;-73
2021/03/21 08:12:18;;;;;;;48.87;28.13;;;2.00;95.90;;;;;;4994007;28;20057;-73
2021/03/21 08:15:13;;;;;;;46.70;27.67;;;2.00;95.90;;;;;;4992642;28;20535;-73
2021/03/21 08:17:43;;;;;;;46.13;26.87;;;2.00;97.10;;;;;;4993924;28;20031;-73
2021/03/21 08:20:20;;;;;;;46.37;27.20;;;2.00;95.90;;;;;;5008884;28;20026;-72
2021/03/21 08:22:46;;;;;;;53.77;28.87;;;2.00;96.40;;;;;;5008983;28;20049;-72
2021/03/21 08:25:32;;;;;;;48.23;29.07;;;2.00;96.70;;;;;;4993729;28;20033;-71
2021/03/21 08:27:58;;;;;;;54.87;29.93;;;2.00;96.20;;;;;;5027728;28;20057;-72
2021/03/21 08:30:43;;;;;;;49.27;27.63;;;2.00;97.10;;;;;;5013092;28;20037;-73
2021/03/21 08:33:12;;;;;;;46.33;26.23;;;2.10;96.80;;;;;;5013587;28;20034;-73
2021/03/21 08:35:38;;;;;;;44.50;26.00;;;2.00;96.70;;;;;;5013304;28;20080;-72
2021/03/21 08:38:17;;;;;;;42.93;25.47;;;1.90;96.50;;;;;;5013014;28;20478;-71
2021/03/21 08:40:44;;;;;;;41.43;26.40;;;1.90;96.40;;;;;;5013310;28;20022;-71
2021/03/21 08:43:14;;;;;;;41.37;25.37;;;;;;;;;;5011652;28;20022;-71
2021/03/21 08:45:46;;;;;;;44.07;25.00;;;1.90;97.30;;;;;;5018661;28;20030;-73
2021/03/21 08:48:13;;;;;;;47.67;28.40;;;1.90;96.90;;;;;;5030294;28;20044;-73
2021/03/21 08:50:48;;;;;;;49.00;28.40;;;1.90;97.40;;;;;;5024849;28;20022;-72
2021/03/21 08:53:38;;;;;;;47.90;27.90;;;1.80;96.70;;;;;;5050325;28;20033;-70
2021/03/21 08:56:30;;;;;;;51.43;28.53;;;1.90;96.80;;;;;;5035522;28;20125;-75
2021/03/21 08:59:17;;;;;;;49.58;26.92;;;1.90;96.30;;;;;;5034724;28;20029;-73
2021/03/21 09:02:04;;;;;;;50.80;29.07;;;1.90;96.60;;;;;;5036266;28;20022;-73
2021/03/21 09:04:31;;;;;;;47.03;29.20;;;1.90;96.80;;;;;;5036272;28;20164;-74
2021/03/21 09:07:23;;;;;;;49.73;30.17;;;1.90;96.70;;;;;;5036617;28;20051;-73
2021/03/21 09:10:12;;;;;;;52.70;30.23;;;2.00;97.00;;;;;;5036659;28;20429;-73
2021/03/21 09:12:46;;;;;;;54.47;32.83;;;1.90;96.50;;;;;;4987690;28;20655;-74
2021/03/21 09:15:33;;;;;;;56.57;31.43;;;1.80;97.60;;;;;;5015415;28;20026;-71
2021/03/21 09:18:17;;;;;;;56.53;31.40;;;1.80;96.70;;;;;;5015499;28;20141;-72
2021/03/21 09:21:16;;;;;;;59.23;31.33;;;1.90;96.60;;;;;;5016337;28;20451;-70
2021/03/21 09:26:18;;;;;;;53.47;31.90;;;;;;;;;;5013598;28;20168;-76
2021/03/21 09:28:48;;;;;;;59.13;32.80;;;;;;;;;;5015179;28;20498;-73
2021/03/21 09:31:15;;;;;;;54.07;31.80;;;;;;;;;;5012640;28;20037;-72
2021/03/21 09:33:55;;;;;;;50.53;30.03;;;1.90;96.80;;;;;;5014358;28;20850;-74
2021/03/21 09:36:30;;;;;;;56.07;31.60;;;1.80;98.10;;;;;;5015016;28;20038;-72
2021/03/21 09:38:59;;;;;;;73.33;38.37;;;;;;;;;;5014707;28;20172;-74
2021/03/21 09:41:26;;;;;;;58.03;33.87;;;;;;;;;;5014871;28;20088;-73
2021/03/21 09:43:54;;;;;;;51.30;29.17;;;;;;;;;;5014901;28;20026;-72
2021/03/21 09:46:21;;;;;;;59.67;31.23;;;;;;;;;;5013800;28;20363;-74
2021/03/21 09:49:03;;;;;;;54.27;29.50;;;1.70;97.70;;;;;;5016121;28;20048;-73
2021/03/21 09:51:43;;;;;;;51.57;30.77;;;1.70;97.50;;;;;;5015813;28;20109;-73
2021/03/21 09:54:11;;;;;;;65.43;36.43;;;1.70;98.40;;;;;;5014770;28;20482;-72
2021/03/21 09:56:49;;;;;;;58.83;32.43;;;1.80;97.80;;;;;;5014014;28;20360;-71
2021/03/21 10:02:57;;;;;;;64.47;33.70;;;1.70;97.80;;;;;;5009428;28;20073;-73
2021/03/21 10:05:34;;;;;;;58.97;31.63;;;1.70;97.90;;;;;;5014821;28;20026;-71
2021/03/21 10:07:59;;;;;;;51.70;30.33;;;1.70;98.10;;;;;;5013820;28;20088;-72
2021/03/21 10:10:33;;;;;;;52.73;31.50;;;1.60;98.10;;;;;;5013626;28;20034;-71
2021/03/21 10:12:59;;;;;;;53.00;31.27;;;1.70;99.20;;;;;;5015411;28;20026;-73
2021/03/21 10:15:26;;;;;;;60.37;34.20;;;1.80;98.40;;;;;;5014191;28;20022;-71
2021/03/21 10:17:58;;;;;;;58.33;35.10;;;1.90;97.60;;;;;;5015227;28;20030;-72
2021/03/21 10:20:53;;;;;;;57.25;30.98;;;2.00;98.10;;;;;;5013170;28;20057;-74
2021/03/21 10:23:18;;;;;;;60.77;34.00;;;2.20;97.50;;;;;;4995847;28;20041;-71
2021/03/21 10:25:49;;;;;;;59.17;34.57;;;2.20;98.20;;;;;;5010531;28;20027;-72
2021/03/21 10:28:43;;;;;;;55.47;32.13;;;2.40;97.60;;;;;;4995861;28;20077;-70
2021/03/21 10:31:24;;;;;;;61.03;31.03;;;2.40;96.50;;;;;;4995426;28;20022;-72
2021/03/21 10:33:54;;;;;;;61.35;32.65;;;2.40;96.00;;;;;;5010694;28;20039;-72
2021/03/21 10:36:41;;;;;;;55.53;29.97;;;2.40;96.70;;;;;;4995552;28;20471;-70
2021/03/21 10:39:42;;;;;;;50.00;27.97;;;2.50;96.00;;;;;;4995698;28;20026;-71
2021/03/21 10:42:14;;;;;;;53.70;30.47;;;2.40;95.60;;;;;;4995202;28;20386;-71
2021/03/21 10:44:41;;;;;;;53.47;30.63;;;2.50;96.00;;;;;;4994228;28;20113;-70
2021/03/21 10:47:12;;;;;;;57.67;32.77;;;2.60;95.10;;;;;;4995393;28;20034;-75
2021/03/21 10:49:48;;;;;;;56.00;31.50;;;2.60;96.20;;;;;;4995729;28;20109;-73
2021/03/21 10:52:34;;;;;;;54.33;30.33;;;2.70;94.90;;;;;;4994763;28;20030;-73
2021/03/21 10:55:13;;;;;;;49.03;29.43;;;2.70;94.20;;;;;;4994061;28;20036;-73
2021/03/21 10:57:42;;;;;;;49.03;30.07;;;2.70;94.30;;;;;;5005911;28;20026;-74
2021/03/21 11:00:11;;;;;;;52.87;30.63;;;2.70;94.70;;;;;;5029903;28;20033;-74
2021/03/21 11:02:41;;;;;;;55.87;32.40;;;2.90;94.50;;;;;;5013165;28;20030;-74
2021/03/21 11:05:30;;;;;;;50.33;30.80;;;2.90;94.40;;;;;;5014451;28;20030;-74
2021/03/21 11:08:14;;;;;;;59.43;32.67;;;3.10;94.60;;;;;;5013178;28;20091;-74
2021/03/21 11:10:50;;;;;;;54.93;30.83;;;3.00;93.20;;;;;;5013045;28;20030;-74
2021/03/21 11:13:36;;;;;;;47.40;28.03;;;3.00;94.10;;;;;;5014628;28;20178;-74
2021/03/21 11:16:13;;;;;;;56.47;32.03;;;2.90;93.70;;;;;;5014246;28;20081;-74
2021/03/21 11:18:40;;;;;;;52.73;29.53;;;3.00;95.30;;;;;;5014733;28;20026;-75
2021/03/21 11:21:14;;;;;;;47.63;28.00;;;3.10;94.20;;;;;;5012991;28;20053;-74
2021/03/21 11:23:53;;;;;;;49.20;27.60;;;3.10;94.20;;;;;;5012990;28;20524;-74
2021/03/21 11:26:25;;;;;;;49.23;30.23;;;3.10;93.90;;;;;;5013744;28;20054;-82
2021/03/21 11:29:06;;;;;;;;;;;3.20;94.90;;;;;;5013325;28;20076;-74
2021/03/21 11:31:43;;;;;;;63.27;34.07;;;3.10;93.80;;;;;;5014311;28;19906;-74
2021/03/21 11:34:28;;;;;;;56.30;31.40;;;3.20;95.10;;;;;;5014185;28;20096;-73
2021/03/21 11:37:05;;;;;;;52.93;31.17;;;3.20;94.10;;;;;;5014140;28;20057;-74
2021/03/21 11:39:41;;;;;;;50.93;30.67;;;3.20;94.90;;;;;;5012869;28;20022;-74
2021/03/21 11:42:38;;;;;;;49.40;29.43;;;3.30;94.70;;;;;;5014094;28;20026;-73
2021/03/21 11:45:28;;;;;;;57.50;32.43;;;3.20;94.60;;;;;;5012408;28;20026;-73
2021/03/21 11:48:13;;;;;;;51.00;27.90;;;3.30;94.50;;;;;;5013401;28;20033;-74
2021/03/21 11:50:45;;;;;;;46.13;26.87;;;3.40;93.40;;;;;;5012474;28;20463;-74
2021/03/21 11:53:19;;;;;;;51.27;29.50;;;3.50;94.00;;;;;;5013622;28;20022;-74
2021/03/21 11:55:48;;;;;;;46.30;27.87;;;;;;;;;;5012442;28;20046;-74
2021/03/21 11:58:30;;;;;;;44.85;28.30;;;3.70;92.60;;;;;;5012298;28;20030;-74
2021/03/21 12:00:55;;;;;;;;;;;3.70;94.00;;;;;;5012767;28;20103;-75
2021/03/21 12:03:23;;;;;;;50.58;29.08;;;3.80;93.20;;;;;;5012183;28;20350;-74
2021/03/21 12:06:31;;;;;;;52.88;30.88;;;3.80;92.30;;;;;;5028458;28;20435;-73
2021/03/21 12:08:59;;;;;;;51.67;29.13;;;3.90;94.30;;;;;;5013399;28;20030;-74
2021/03/21 12:11:24;;;;;;;50.13;29.15;;;4.20;92.50;;;;;;5013533;28;20025;-72
2021/03/21 12:13:52;;;;;;;48.47;27.70;;;4.40;97.10;;;;;;5013836;28;20482;-73
2021/03/21 12:16:40;;;;;;;49.45;29.48;;;4.50;91.80;;;;;;5012236;28;20041;-74
2021/03/21 12:19:24;;;;;;;46.65;29.27;;;4.50;92.00;;;;;;5013071;28;20034;-73
2021/03/21 12:21:52;;;;;;;45.55;28.35;;;4.50;92.10;;;;;;5013407;28;20080;-72
2021/03/21 12:24:22;;;;;;;49.53;31.33;;;4.50;91.50;;;;;;5012088;28;20025;-74
2021/03/21 12:27:00;;;;;;;47.38;28.98;;;4.60;92.40;;;;;;5013312;28;20171;-72
2021/03/21 12:29:29;;;;;;;51.28;31.15;;;4.70;91.40;;;;;;5013363;28;20030;-73
2021/03/21 12:32:12;;;;;;;53.05;31.25;;;4.70;91.80;;;;;;5013647;28;20022;-73
2021/03/21 12:34:45;;;;;;;52.03;30.00;;;5.00;91.50;;;;;;5013394;28;20025;-73
2021/03/21 12:37:20;;;;;;;49.33;29.77;;;5.10;90.70;;;;;;5013304;28;20117;-72
2021/03/21 12:39:54;;;;;;;47.22;29.45;;;5.00;91.00;;;;;;5013294;28;20030;-71
2021/03/21 12:42:32;;;;;;;48.00;30.58;;;5.10;90.60;;;;;;5013337;28;20033;-72
2021/03/21 12:45:09;;;;;;;51.35;31.58;;;5.20;91.80;;;;;;5013211;28;20030;-73
2021/03/21 12:47:39;;;;;;;47.67;28.80;;;5.10;92.50;;;;;;5013218;28;20088;-71
2021/03/21 12:50:38;;;;;;;52.10;31.10;;;4.90;90.30;;;;;;5013214;28;20068;-71
2021/03/21 12:53:08;;;;;;;52.28;31.48;;;4.80;91.50;;;;;;5013152;28;20037;-71
2021/03/21 12:55:34;;;;;;;52.17;32.08;;;4.70;92.10;;;;;;5013142;28;20022;-73
2021/03/21 12:58:00;;;;;;;47.25;28.65;;;4.60;92.80;;;;;;5012813;28;20479;-71
2021/03/21 13:00:29;;;;;;;53.90;30.50;;;4.60;91.40;;;;;;5011853;28;20117;-71
2021/03/21 13:02:57;;;;;;;51.25;31.30;;;4.90;93.10;;;;;;5013087;28;20471;-72
2021/03/21 13:05:30;;;;;;;50.03;30.65;;;5.00;92.80;;;;;;5012752;28;20057;-71
2021/03/21 13:07:56;;;;;;;49.50;29.27;;;5.00;92.40;;;;;;5011678;28;20034;-73
2021/03/21 13:10:24;;;;;;;51.55;31.13;;;5.00;91.20;;;;;;5012987;28;20037;-74
2021/03/21 13:12:50;;;;;;;50.65;31.17;;;5.20;92.10;;;;;;5012930;28;20048;-70
2021/03/21 13:15:17;;;;;;;57.38;34.03;;;5.20;91.40;;;;;;5012931;28;20108;-73
2021/03/21 13:17:44;;;;;;;64.50;36.22;;;5.20;91.70;;;;;;5012892;28;20056;-72
2021/03/21 13:20:12;;;;;;;58.50;35.28;;;5.20;91.90;;;;;;5012057;28;20533;-72
2021/03/21 13:22:38;;;;;;;63.03;36.97;;;5.40;91.00;;;;;;5012778;28;20030;-73
2021/03/21 13:25:06;;;;;;;57.78;35.53;;;5.40;92.20;;;;;;5011542;28;20561;-72
2021/03/21 13:27:32;;;;;;;61.03;36.55;;;5.50;93.00;;;;;;5012642;28;20137;-72
2021/03/21 13:29:58;;;;;;;62.17;36.42;;;5.40;91.50;;;;;;5010978;28;20026;-73
2021/03/21 13:32:25;;;;;;;57.10;34.97;;;5.40;92.10;;;;;;5013939;28;20030;-73
2021/03/21 13:34:53;;;;;;;58.97;35.85;;;5.40;92.20;;;;;;5016673;28;20050;-72
2021/03/21 13:37:21;;;;;;;61.50;37.53;;;5.30;91.50;;;;;;5016267;28;20065;-72
2021/03/21 13:39:50;;;;;;;53.38;32.28;;;5.40;92.00;;;;;;5016374;28;20394;-73
2021/03/21 13:42:16;;;;;;;48.67;30.52;;;5.40;91.50;;;;;;5016285;28;20030;-72